Time;durP1;ratioP1;P1;durP2;ratioP2;P2;SDS_P1;SDS_P2;PMS_P1;PMS_P2;Temp;Humidity;BMP_temperature;BMP_pressure;BME280_temperature;BME280_humidity;BME280_pressure;Samples;Min_cycle;Max_cycle;Signal;HPM_P1;HPM_P2
2022/07/02 00:01:49;;;;;;;9.02;4.05;;;;;;;;;;5015129;28;20026;-37
2022/07/02 00:04:18;;;;;;;9.45;4.32;;;;;;;;;;5015007;28;20057;-37
2022/07/02 00:06:43;;;;;;;10.88;4.97;;;;;;;;;;5015113;28;20018;-37
2022/07/02 00:09:09;;;;;;;16.40;5.03;;;;;;;;;;5013187;28;20381;-37
2022/07/02 00:11:35;;;;;;;11.82;4.28;;;;;;;;;;5047328;28;20026;-36
2022/07/02 00:14:01;;;;;;;16.92;4.40;;;;;;;;;;5014873;28;20086;-36
2022/07/02 00:16:27;;;;;;;14.07;4.18;;;;;;;;;;5023225;28;20064;-37
2022/07/02 00:18:53;;;;;;;10.75;4.30;;;;;;;;;;5034733;28;20057;-38
2022/07/02 00:21:18;;;;;;;9.63;4.90;;;;;;;;;;5034081;28;20461;-36
2022/07/02 00:23:44;;;;;;;16.55;4.82;;;;;;;;;;5033079;28;20049;-37
2022/07/02 00:26:15;;;;;;;9.35;4.18;;;;;;;;;;5034173;28;20036;-37
2022/07/02 00:28:42;;;;;;;12.32;4.55;;;;;;;;;;5034748;28;20025;-36
2022/07/02 00:31:07;;;;;;;10.82;4.57;;;;;;;;;;5034417;28;20022;-36
2022/07/02 00:33:37;;;;;;;10.77;4.88;;;;;;;;;;5033633;28;20049;-36
2022/07/02 00:36:03;;;;;;;9.07;4.38;;;;;;;;;;5034241;28;20053;-38
2022/07/02 00:38:28;;;;;;;8.27;4.45;;;;;;;;;;5034010;28;20029;-36
2022/07/02 00:40:54;;;;;;;10.25;4.60;;;;;;;;;;5034040;28;20017;-37
2022/07/02 00:43:20;;;;;;;6.93;4.03;;;;;;;;;;5034281;28;20060;-36
2022/07/02 00:45:46;;;;;;;8.27;4.60;;;;;;;;;;5034157;28;20021;-36
2022/07/02 00:48:13;;;;;;;8.73;4.03;;;;;;;;;;5033046;28;20488;-37
2022/07/02 00:50:38;;;;;;;16.48;4.28;;;;;;;;;;5034004;28;20075;-37
2022/07/02 00:53:03;;;;;;;5.05;3.65;;;;;;;;;;5033853;28;20427;-38
2022/07/02 00:55:29;;;;;;;8.23;3.72;;;;;;;;;;5034207;28;20039;-36
2022/07/02 00:57:55;;;;;;;5.20;4.07;;;;;;;;;;5033777;28;20027;-37
2022/07/02 01:00:20;;;;;;;5.25;3.38;;;;;;;;;;5033989;28;20097;-36
2022/07/02 01:02:46;;;;;;;11.45;3.60;;;;;;;;;;5032635;28;20053;-36
2022/07/02 01:05:19;;;;;;;6.47;3.90;;;;;;;;;;5033826;28;20079;-37
2022/07/02 01:10:40;;;;;;;6.43;3.80;;;;;;;;;;5033295;28;20031;-37
2022/07/02 01:13:08;;;;;;;9.02;3.95;;;;;;;;;;5033279;28;20036;-36
2022/07/02 01:15:34;;;;;;;8.85;4.00;;;;;;;;;;5033610;28;20415;-36
2022/07/02 01:18:01;;;;;;;6.10;3.40;;;;;;;;;;5033450;28;20024;-37
2022/07/02 01:20:26;;;;;;;13.15;3.67;;;;;;;;;;5033320;28;20079;-37
2022/07/02 01:22:52;;;;;;;4.57;2.78;;;;;;;;;;5033188;28;20468;-37
2022/07/02 01:25:17;;;;;;;15.95;3.50;;;;;;;;;;5033324;28;20024;-37
2022/07/02 01:27:42;;;;;;;4.18;3.00;;;;;;;;;;5033513;28;20014;-36
2022/07/02 01:30:08;;;;;;;5.60;3.08;;;;;;;;;;5033441;28;20018;-36
2022/07/02 01:32:34;;;;;;;12.02;3.45;;;;;;;;;;5032944;28;20465;-37
2022/07/02 01:35:04;;;;;;;11.20;3.47;;;;;;;;;;5033224;28;20081;-37
2022/07/02 01:37:29;;;;;;;8.35;3.15;;;;;;;;;;5031994;28;20034;-36
2022/07/02 01:39:54;;;;;;;5.13;3.05;;;;;;;;;;5033240;28;20095;-37
2022/07/02 01:42:20;;;;;;;5.90;3.07;;;;;;;;;;5031796;28;20422;-38
2022/07/02 01:44:45;;;;;;;11.40;4.43;;;;;;;;;;5033022;28;20238;-37
2022/07/02 01:47:11;;;;;;;4.18;3.00;;;;;;;;;;5032967;28;20022;-37
2022/07/02 01:49:37;;;;;;;4.07;2.90;;;;;;;;;;5032544;28;20025;-37
2022/07/02 01:52:03;;;;;;;4.05;3.20;;;;;;;;;;5032925;28;20017;-37
2022/07/02 01:54:28;;;;;;;6.65;3.45;;;;;;;;;;5033032;28;20029;-36
2022/07/02 01:56:54;;;;;;;9.20;3.40;;;;;;;;;;5031370;28;20431;-37
2022/07/02 01:59:19;;;;;;;5.80;2.90;;;;;;;;;;5032725;28;20494;-36
2022/07/02 02:01:45;;;;;;;6.93;3.10;;;;;;;;;;5032801;28;20021;-37
2022/07/02 02:04:10;;;;;;;7.60;2.90;;;;;;;;;;5032538;28;20469;-36
2022/07/02 02:06:37;;;;;;;9.48;3.00;;;;;;;;;;5032882;28;20465;-36
2022/07/02 02:09:02;;;;;;;8.32;3.13;;;;;;;;;;5032189;28;20095;-37
2022/07/02 02:11:27;;;;;;;7.18;2.88;;;;;;;;;;5032658;28;20025;-36
2022/07/02 02:13:53;;;;;;;5.05;3.28;;;;;;;;;;5032547;28;20014;-37
2022/07/02 02:16:18;;;;;;;5.63;2.80;;;;;;;;;;5032412;28;20083;-37
2022/07/02 02:18:44;;;;;;;4.22;2.95;;;;;;;;;;5032244;28;20453;-37
2022/07/02 02:21:10;;;;;;;4.13;3.38;;;;;;;;;;5030812;28;20100;-36
2022/07/02 02:23:35;;;;;;;5.38;2.80;;;;;;;;;;5030968;28;20032;-36
2022/07/02 02:26:01;;;;;;;6.20;2.97;;;;;;;;;;5032284;28;20017;-36
2022/07/02 02:28:26;;;;;;;8.88;3.20;;;;;;;;;;5032169;28;20516;-36
2022/07/02 02:30:51;;;;;;;6.85;2.80;;;;;;;;;;5032303;28;20152;-39
2022/07/02 02:33:17;;;;;;;5.65;2.70;;;;;;;;;;5031786;28;20071;-36
2022/07/02 02:35:42;;;;;;;9.10;2.58;;;;;;;;;;5032314;28;20436;-38
2022/07/02 02:38:07;;;;;;;3.25;2.63;;;;;;;;;;5032245;28;20461;-37
2022/07/02 02:40:33;;;;;;;6.07;2.50;;;;;;;;;;5030883;28;20017;-36
2022/07/02 02:42:58;;;;;;;4.67;2.57;;;;;;;;;;5032521;28;20018;-36
2022/07/02 02:45:23;;;;;;;4.30;2.65;;;;;;;;;;5032114;28;20247;-36
2022/07/02 02:47:48;;;;;;;3.37;2.40;;;;;;;;;;5030724;28;20028;-39
2022/07/02 02:50:14;;;;;;;5.57;3.35;;;;;;;;;;5031308;28;20321;-37
2022/07/02 02:52:39;;;;;;;6.13;2.80;;;;;;;;;;5032026;28;20041;-36
2022/07/02 02:55:05;;;;;;;7.25;2.78;;;;;;;;;;5030507;28;20035;-37
2022/07/02 02:57:30;;;;;;;6.53;2.95;;;;;;;;;;5031625;28;20022;-36
2022/07/02 02:59:56;;;;;;;7.80;3.70;;;;;;;;;;5032000;28;20022;-36
2022/07/02 03:02:21;;;;;;;11.82;3.00;;;;;;;;;;5031877;28;20025;-37
2022/07/02 03:04:47;;;;;;;5.35;3.10;;;;;;;;;;5031448;28;20373;-37
2022/07/02 03:07:12;;;;;;;4.28;2.90;;;;;;;;;;5031918;28;20076;-37
2022/07/02 03:09:37;;;;;;;4.77;2.73;;;;;;;;;;5031655;28;20021;-36
2022/07/02 03:12:03;;;;;;;5.50;2.90;;;;;;;;;;5031928;28;20247;-39
2022/07/02 03:14:28;;;;;;;5.50;2.95;;;;;;;;;;5031800;28;20034;-36
2022/07/02 03:16:53;;;;;;;4.70;3.08;;;;;;;;;;5031426;28;20049;-38
2022/07/02 03:19:19;;;;;;;8.18;3.13;;;;;;;;;;5031401;28;20022;-37
2022/07/02 03:21:44;;;;;;;5.35;3.15;;;;;;;;;;5031843;28;20097;-37
2022/07/02 03:24:09;;;;;;;9.00;2.88;;;;;;;;;;5031699;28;20028;-37
2022/07/02 03:26:35;;;;;;;5.13;2.92;;;;;;;;;;5031586;28;20380;-36
2022/07/02 03:29:00;;;;;;;5.40;2.70;;;;;;;;;;5031892;28;20021;-37
2022/07/02 03:31:25;;;;;;;8.55;2.65;;;;;;;;;;5031455;28;20049;-36
2022/07/02 03:33:51;;;;;;;2.97;2.60;;;;;;;;;;5031181;28;20045;-37
2022/07/02 03:36:16;;;;;;;3.23;2.93;;;;;;;;;;5035162;28;20025;-36
2022/07/02 03:38:41;;;;;;;4.88;3.00;;;;;;;;;;5035484;28;20362;-36
2022/07/02 03:41:07;;;;;;;5.20;2.75;;;;;;;;;;5035824;28;20021;-37
2022/07/02 03:43:33;;;;;;;6.03;3.03;;;;;;;;;;5035472;28;20079;-37
2022/07/02 03:45:58;;;;;;;3.75;2.53;;;;;;;;;;5035192;28;20412;-36
2022/07/02 03:48:24;;;;;;;3.67;2.72;;;;;;;;;;5035441;28;20057;-36
2022/07/02 03:50:49;;;;;;;7.35;4.05;;;;;;;;;;5035141;28;20021;-37
2022/07/02 03:53:15;;;;;;;7.18;2.28;;;;;;;;;;5033895;28;20025;-37
2022/07/02 03:55:40;;;;;;;5.38;2.80;;;;;;;;;;5035025;28;20052;-36
2022/07/02 03:58:05;;;;;;;2.90;1.80;;;;;;;;;;5035296;28;20087;-37
2022/07/02 04:00:31;;;;;;;5.80;2.22;;;;;;;;;;5035426;28;20473;-36
2022/07/02 04:02:56;;;;;;;3.05;2.20;;;;;;;;;;5034823;28;20101;-37
2022/07/02 04:05:22;;;;;;;6.38;2.55;;;;;;;;;;5034861;28;20706;-36
2022/07/02 04:07:47;;;;;;;5.45;1.80;;;;;;;;;;5034775;28;20065;-36
2022/07/02 04:10:13;;;;;;;2.28;1.60;;;;;;;;;;5033219;28;20644;-37
2022/07/02 04:12:38;;;;;;;2.78;1.70;;;;;;;;;;5034938;28;20032;-38
2022/07/02 04:15:04;;;;;;;3.63;2.05;;;;;;;;;;5034889;28;20037;-37
2022/07/02 04:17:29;;;;;;;6.07;1.40;;;;;;;;;;5034776;28;20028;-35
2022/07/02 04:19:55;;;;;;;3.80;1.40;;;;;;;;;;5033135;28;20113;-39
2022/07/02 04:22:20;;;;;;;2.80;1.45;;;;;;;;;;5032761;28;20022;-37
2022/07/02 04:24:45;;;;;;;4.10;1.50;;;;;;;;;;5034522;28;20022;-37
2022/07/02 04:27:11;;;;;;;4.33;1.60;;;;;;;;;;5034815;28;20079;-37
2022/07/02 04:29:36;;;;;;;2.38;1.30;;;;;;;;;;5034857;28;20665;-38
2022/07/02 04:32:01;;;;;;;1.73;1.20;;;;;;;;;;5034466;28;20030;-37
2022/07/02 04:34:26;;;;;;;5.63;1.67;;;;;;;;;;5033797;28;20053;-37
2022/07/02 04:36:52;;;;;;;6.25;1.70;;;;;;;;;;5034331;28;20483;-38
2022/07/02 04:39:17;;;;;;;1.55;1.38;;;;;;;;;;5034419;28;20113;-37
2022/07/02 04:41:43;;;;;;;4.18;1.48;;;;;;;;;;5034374;28;20435;-38
2022/07/02 04:44:08;;;;;;;3.42;1.20;;;;;;;;;;5032971;28;20048;-37
2022/07/02 04:46:33;;;;;;;2.80;1.40;;;;;;;;;;5033001;28;20029;-37
2022/07/02 04:48:59;;;;;;;6.32;1.33;;;;;;;;;;5034002;28;20013;-38
2022/07/02 04:51:24;;;;;;;3.80;1.15;;;;;;;;;;5033997;28;20021;-37
2022/07/02 04:53:49;;;;;;;3.83;1.10;;;;;;;;;;5034159;28;20384;-37
2022/07/02 04:56:15;;;;;;;3.58;1.33;;;;;;;;;;5033792;28;20021;-38
2022/07/02 04:58:40;;;;;;;2.57;1.20;;;;;;;;;;5034115;28;20151;-37
2022/07/02 05:01:05;;;;;;;4.25;1.17;;;;;;;;;;5032394;28;20255;-38
2022/07/02 05:03:31;;;;;;;2.33;1.20;;;;;;;;;;5034198;28;20148;-37
2022/07/02 05:05:57;;;;;;;4.38;1.40;;;;;;;;;;5033655;28;20021;-39
2022/07/02 05:08:26;;;;;;;4.68;1.33;;;;;;;;;;5033043;28;20033;-40
2022/07/02 05:10:52;;;;;;;1.75;1.13;;;;;;;;;;5033657;28;20447;-39
2022/07/02 05:13:17;;;;;;;3.60;1.40;;;;;;;;;;5034058;28;20034;-37
2022/07/02 05:15:43;;;;;;;3.47;1.27;;;;;;;;;;5033641;28;20465;-37
2022/07/02 05:18:09;;;;;;;2.10;1.30;;;;;;;;;;5033572;28;20275;-37
2022/07/02 05:20:34;;;;;;;2.60;1.30;;;;;;;;;;5032989;28;20061;-37
2022/07/02 05:22:59;;;;;;;6.18;1.52;;;;;;;;;;5033695;28;20625;-37
2022/07/02 05:25:25;;;;;;;5.28;1.33;;;;;;;;;;5033250;28;20022;-37
2022/07/02 05:27:50;;;;;;;1.23;1.10;;;;;;;;;;5033630;28;20024;-37
2022/07/02 05:30:15;;;;;;;3.67;1.25;;;;;;;;;;5033383;28;20026;-37
2022/07/02 05:32:41;;;;;;;7.03;1.23;;;;;;;;;;5033149;28;20036;-36
2022/07/02 05:35:06;;;;;;;4.13;1.52;;;;;;;;;;5031552;28;20694;-37
2022/07/02 05:37:32;;;;;;;2.03;1.30;;;;;;;;;;5032947;28;20029;-37
2022/07/02 05:39:57;;;;;;;3.72;1.17;;;;;;;;;;5033277;28;20096;-37
2022/07/02 05:42:22;;;;;;;2.20;1.23;;;;;;;;;;5033229;28;20075;-37
2022/07/02 05:44:48;;;;;;;3.00;1.23;;;;;;;;;;5032963;28;20485;-37
2022/07/02 05:47:13;;;;;;;3.90;1.42;;;;;;;;;;5033062;28;20152;-38
2022/07/02 05:49:38;;;;;;;3.50;1.40;;;;;;;;;;5033125;28;20032;-37
2022/07/02 05:52:04;;;;;;;3.50;1.52;;;;;;;;;;5032774;28;20113;-38
2022/07/02 05:54:29;;;;;;;4.63;1.45;;;;;;;;;;5033109;28;20045;-37
2022/07/02 05:56:55;;;;;;;3.35;1.50;;;;;;;;;;5032302;28;20030;-37
2022/07/02 05:59:21;;;;;;;2.58;1.40;;;;;;;;;;5033086;28;20025;-36
2022/07/02 06:01:47;;;;;;;2.80;1.50;;;;;;;;;;5032946;28;20025;-37
2022/07/02 06:04:12;;;;;;;3.50;1.73;;;;;;;;;;5032564;28;20687;-42
2022/07/02 06:09:21;;;;;;;5.45;1.40;;;;;;;;;;5032328;28;20083;-37
2022/07/02 06:11:46;;;;;;;5.93;1.53;;;;;;;;;;5031392;28;20017;-37
2022/07/02 06:14:12;;;;;;;1.83;1.40;;;;;;;;;;5032479;28;20029;-36
2022/07/02 06:16:37;;;;;;;1.90;1.50;;;;;;;;;;5032466;28;20049;-37
2022/07/02 06:19:05;;;;;;;4.13;1.35;;;;;;;;;;5032230;28;20103;-38
2022/07/02 06:21:30;;;;;;;2.15;1.30;;;;;;;;;;5032042;28;20032;-37
2022/07/02 06:23:56;;;;;;;2.28;1.42;;;;;;;;;;5032505;28;20018;-37
2022/07/02 06:26:21;;;;;;;6.57;1.40;;;;;;;;;;5032352;28;20033;-38
2022/07/02 06:28:46;;;;;;;7.97;1.40;;;;;;;;;;5032422;28;20243;-37
2022/07/02 06:31:12;;;;;;;1.50;1.40;;;;;;;;;;5031022;28;20032;-37
2022/07/02 06:33:39;;;;;;;3.15;1.30;;;;;;;;;;5031514;28;20065;-38
2022/07/02 06:36:07;;;;;;;2.92;1.33;;;;;;;;;;5031873;28;20523;-37
2022/07/02 06:38:33;;;;;;;1.52;1.40;;;;;;;;;;5032222;28;20044;-37
2022/07/02 06:40:58;;;;;;;3.63;1.48;;;;;;;;;;5032252;28;20026;-37
2022/07/02 06:43:25;;;;;;;2.97;1.40;;;;;;;;;;5031908;28;20423;-38
2022/07/02 06:45:51;;;;;;;2.30;2.10;;;;;;;;;;5031849;28;20094;-37
2022/07/02 06:48:16;;;;;;;4.65;1.58;;;;;;;;;;5032020;28;20084;-37
2022/07/02 06:50:41;;;;;;;4.78;1.50;;;;;;;;;;5031809;28;20024;-38
2022/07/02 06:53:07;;;;;;;4.30;1.67;;;;;;;;;;5032016;28;20025;-37
2022/07/02 06:55:32;;;;;;;2.78;1.92;;;;;;;;;;5032068;28;20196;-37
2022/07/02 06:57:57;;;;;;;1.90;1.50;;;;;;;;;;5030441;28;20018;-37
2022/07/02 07:00:23;;;;;;;5.70;2.00;;;;;;;;;;5031789;28;20064;-37
2022/07/02 07:02:49;;;;;;;5.50;1.73;;;;;;;;;;5031742;28;20013;-37
2022/07/02 07:05:15;;;;;;;7.90;1.98;;;;;;;;;;5031448;28;20075;-38
2022/07/02 07:07:41;;;;;;;2.55;1.80;;;;;;;;;;5031970;28;20025;-37
2022/07/02 07:10:06;;;;;;;14.43;1.93;;;;;;;;;;5030502;28;20067;-38
2022/07/02 07:12:31;;;;;;;2.63;1.98;;;;;;;;;;5032070;28;20257;-38
2022/07/02 07:15:00;;;;;;;4.20;2.10;;;;;;;;;;5031856;28;20032;-37
2022/07/02 07:17:25;;;;;;;3.45;1.67;;;;;;;;;;5031392;28;20326;-38
2022/07/02 07:19:51;;;;;;;2.20;2.00;;;;;;;;;;5029945;28;20117;-37
2022/07/02 07:22:16;;;;;;;3.40;1.92;;;;;;;;;;5031198;28;20377;-37
2022/07/02 07:24:41;;;;;;;3.38;1.90;;;;;;;;;;5031796;28;20028;-37
2022/07/02 07:27:07;;;;;;;4.13;1.90;;;;;;;;;;5031472;28;20453;-38
2022/07/02 07:29:32;;;;;;;6.57;1.88;;;;;;;;;;5030253;28;20634;-37
2022/07/02 07:31:58;;;;;;;3.35;1.90;;;;;;;;;;5031206;28;20381;-38
2022/07/02 07:34:23;;;;;;;3.40;2.20;;;;;;;;;;5031017;28;20148;-38
2022/07/02 07:36:50;;;;;;;7.10;1.90;;;;;;;;;;5031480;28;20037;-38
2022/07/02 07:39:16;;;;;;;3.75;1.90;;;;;;;;;;5031367;28;20445;-38
2022/07/02 07:41:41;;;;;;;3.43;2.37;;;;;;;;;;5031322;28;20093;-37
2022/07/02 07:44:06;;;;;;;5.32;2.20;;;;;;;;;;5031219;28;20234;-37
2022/07/02 07:46:32;;;;;;;4.80;2.10;;;;;;;;;;5031226;28;20029;-38
2022/07/02 07:49:00;;;;;;;5.40;1.95;;;;;;;;;;5031000;28;20337;-38
2022/07/02 07:51:25;;;;;;;4.53;1.80;;;;;;;;;;5031080;28;20022;-38
2022/07/02 07:53:51;;;;;;;2.60;1.90;;;;;;;;;;5031460;28;20029;-37
2022/07/02 07:56:17;;;;;;;10.53;2.40;;;;;;;;;;5029844;28;20061;-40
2022/07/02 07:58:43;;;;;;;3.42;2.22;;;;;;;;;;5030901;28;20285;-39
2022/07/02 08:01:08;;;;;;;5.30;2.28;;;;;;;;;;5031103;28;20021;-37
2022/07/02 08:03:34;;;;;;;4.40;2.10;;;;;;;;;;5031039;28;20013;-42
2022/07/02 08:05:59;;;;;;;2.60;2.20;;;;;;;;;;5030800;28;20033;-38
2022/07/02 08:08:24;;;;;;;8.23;2.33;;;;;;;;;;5030930;28;20477;-38
2022/07/02 08:10:49;;;;;;;5.83;2.37;;;;;;;;;;5030815;28;20025;-37
2022/07/02 08:13:15;;;;;;;5.97;2.08;;;;;;;;;;5031097;28;20021;-38
2022/07/02 08:15:41;;;;;;;5.72;2.15;;;;;;;;;;5030896;28;20044;-38
2022/07/02 08:18:08;;;;;;;3.10;2.45;;;;;;;;;;5030909;28;20018;-37
2022/07/02 08:20:33;;;;;;;4.45;2.25;;;;;;;;;;5031346;28;20110;-37
2022/07/02 08:22:59;;;;;;;3.60;2.17;;;;;;;;;;5034572;28;20045;-39
2022/07/02 08:25:24;;;;;;;5.67;2.30;;;;;;;;;;5034554;28;20022;-38
2022/07/02 08:27:49;;;;;;;2.88;2.20;;;;;;;;;;5034271;28;20738;-37
2022/07/02 08:30:15;;;;;;;3.95;2.60;;;;;;;;;;5034402;28;20030;-37
2022/07/02 08:32:40;;;;;;;4.03;2.40;;;;;;;;;;5034004;28;20526;-37
2022/07/02 08:35:06;;;;;;;4.88;2.53;;;;;;;;;;5034144;28;20119;-37
2022/07/02 08:37:32;;;;;;;10.18;2.35;;;;;;;;;;5034510;28;20025;-37
2022/07/02 08:39:58;;;;;;;4.38;2.33;;;;;;;;;;5034283;28;20488;-37
2022/07/02 08:42:23;;;;;;;3.72;2.55;;;;;;;;;;5033983;28;20449;-37
2022/07/02 08:44:48;;;;;;;5.55;2.50;;;;;;;;;;5033745;28;20365;-37
2022/07/02 08:47:14;;;;;;;6.95;2.50;;;;;;;;;;5034221;28;20030;-35
2022/07/02 08:49:40;;;;;;;5.90;2.63;;;;;;;;;;5033758;28;20025;-38
2022/07/02 08:52:07;;;;;;;3.10;2.35;;;;;;;;;;5034126;28;20021;-37
2022/07/02 08:54:33;;;;;;;4.35;2.85;;;;;;;;;;5033923;28;20117;-39
2022/07/02 08:57:00;;;;;;;3.72;2.22;;;;;;;;;;5033632;28;20032;-37
2022/07/02 08:59:25;;;;;;;6.68;2.92;;;;;;;;;;5033707;28;20033;-38
2022/07/02 09:01:52;;;;;;;6.47;3.10;;;;;;;;;;5033667;28;20025;-38
2022/07/02 09:04:18;;;;;;;5.18;2.88;;;;;;;;;;5033486;28;20477;-38
2022/07/02 09:06:44;;;;;;;4.45;2.67;;;;;;;;;;5033464;28;20021;-41
2022/07/02 09:09:09;;;;;;;4.57;2.80;;;;;;;;;;5033364;28;20025;-38
2022/07/02 09:11:35;;;;;;;3.83;3.20;;;;;;;;;;5033610;28;20022;-36
2022/07/02 09:14:00;;;;;;;4.63;3.30;;;;;;;;;;5033489;28;20285;-37
2022/07/02 09:16:26;;;;;;;5.95;3.10;;;;;;;;;;5033419;28;20021;-38
2022/07/02 09:18:51;;;;;;;4.55;3.03;;;;;;;;;;5032147;28;20388;-37
2022/07/02 09:21:16;;;;;;;4.18;3.25;;;;;;;;;;5033087;28;20072;-37
2022/07/02 09:23:48;;;;;;;8.18;3.33;;;;;;;;;;5033506;28;20026;-37
2022/07/02 09:26:21;;;;;;;6.95;2.90;;;;;;;;;;5033445;28;20025;-37
2022/07/02 09:28:56;;;;;;;4.38;3.10;;;;;;;;;;5033288;28;20053;-36
2022/07/02 09:31:21;;;;;;;7.60;3.55;;;;;;;;;;5033040;28;20026;-36
2022/07/02 09:33:47;;;;;;;4.05;2.65;;;;;;;;;;5032066;28;20049;-35
2022/07/02 09:36:12;;;;;;;8.30;3.30;;;;;;;;;;5033277;28;20136;-35
2022/07/02 09:38:44;;;;;;;3.75;2.80;;;;;;;;;;5033019;28;20598;-37
2022/07/02 09:41:11;;;;;;;5.00;2.63;;;;;;;;;;5033275;28;20028;-37
2022/07/02 09:43:38;;;;;;;6.45;3.00;;;;;;;;;;5032914;28;20036;-37
2022/07/02 09:46:13;;;;;;;3.40;2.90;;;;;;;;;;5032596;28;20029;-37
2022/07/02 09:48:38;;;;;;;4.82;2.80;;;;;;;;;;5033157;28;20017;-37
2022/07/02 09:51:04;;;;;;;8.57;3.47;;;;;;;;;;5033318;28;20033;-37
2022/07/02 09:53:29;;;;;;;4.72;3.25;;;;;;;;;;5032896;28;20022;-37
2022/07/02 09:55:55;;;;;;;6.97;2.75;;;;;;;;;;5032748;28;20044;-37
2022/07/02 09:58:24;;;;;;;8.32;3.40;;;;;;;;;;5032545;28;20022;-37
2022/07/02 10:00:50;;;;;;;3.92;3.28;;;;;;;;;;5032196;28;20526;-37
2022/07/02 10:03:15;;;;;;;9.57;3.63;;;;;;;;;;5032812;28;20105;-37
2022/07/02 10:05:45;;;;;;;6.23;3.23;;;;;;;;;;5032145;28;20021;-37
2022/07/02 10:08:11;;;;;;;10.63;3.30;;;;;;;;;;5032529;28;20036;-37
2022/07/02 10:10:39;;;;;;;5.95;3.22;;;;;;;;;;5032137;28;20028;-37
2022/07/02 10:13:05;;;;;;;;;;;;;;;;;;5032772;28;20456;-39
2022/07/02 10:15:31;;;;;;;4.63;3.10;;;;;;;;;;5031788;28;19963;-38
2022/07/02 10:17:57;;;;;;;7.43;3.70;;;;;;;;;;5032354;28;20091;-37
2022/07/02 10:20:23;;;;;;;7.90;4.00;;;;;;;;;;5028688;28;20025;-39
2022/07/02 10:22:49;;;;;;;5.70;3.78;;;;;;;;;;5042149;28;20029;-38
2022/07/02 10:25:14;;;;;;;7.72;3.78;;;;;;;;;;5051422;28;20017;-40
2022/07/02 10:27:40;;;;;;;9.93;4.60;;;;;;;;;;5032782;28;20022;-37
2022/07/02 10:30:06;;;;;;;5.55;3.60;;;;;;;;;;5031734;28;20033;-37
2022/07/02 10:32:31;;;;;;;7.95;3.92;;;;;;;;;;5031692;28;20385;-38
2022/07/02 10:35:06;;;;;;;8.70;3.43;;;;;;;;;;5031355;28;20065;-37
2022/07/02 10:37:32;;;;;;;5.72;4.00;;;;;;;;;;5031420;28;20013;-39
2022/07/02 10:40:03;;;;;;;6.85;4.00;;;;;;;;;;5031347;28;20032;-38
2022/07/02 10:42:59;;;;;;;9.05;4.30;;;;;;;;;;5031318;28;20483;-38
2022/07/02 10:45:25;;;;;;;10.25;3.78;;;;;;;;;;5030127;28;20041;-40
2022/07/02 10:47:54;;;;;;;6.55;3.60;;;;;;;;;;5030427;28;20025;-41
2022/07/02 10:50:20;;;;;;;10.35;4.15;;;;;;;;;;5031692;28;20529;-37
2022/07/02 10:52:51;;;;;;;6.10;3.50;;;;;;;;;;5030448;28;20029;-38
2022/07/02 10:55:26;;;;;;;7.63;3.38;;;;;;;;;;5030529;28;20499;-38
2022/07/02 10:58:02;;;;;;;4.60;3.60;;;;;;;;;;5030804;28;20021;-38
2022/07/02 11:00:27;;;;;;;3.92;3.38;;;;;;;;;;5030969;28;20070;-38
2022/07/02 11:02:53;;;;;;;7.33;3.73;;;;;;;;;;5030371;28;20472;-38
2022/07/02 11:05:18;;;;;;;4.70;3.75;;;;;;;;;;5031003;28;20029;-38
2022/07/02 11:07:44;;;;;;;8.73;3.77;;;;;;;;;;5030681;28;20013;-39
2022/07/02 11:10:09;;;;;;;5.80;3.92;;;;;;;;;;5030663;28;20033;-38
2022/07/02 11:12:43;;;;;;;6.57;3.60;;;;;;;;;;5030997;28;20029;-40
2022/07/02 11:15:19;;;;;;;4.68;3.40;;;;;;;;;;5022285;28;20030;-38
2022/07/02 11:17:52;;;;;;;7.72;3.80;;;;;;;;;;5030154;28;20029;-39
2022/07/02 11:20:27;;;;;;;6.47;3.30;;;;;;;;;;5030511;28;20380;-38
2022/07/02 11:22:53;;;;;;;9.23;3.97;;;;;;;;;;5030288;28;20033;-41
2022/07/02 11:25:18;;;;;;;7.45;3.60;;;;;;;;;;5030683;28;20022;-40
2022/07/02 11:27:54;;;;;;;6.55;3.58;;;;;;;;;;5030795;28;20021;-38
2022/07/02 11:30:23;;;;;;;4.72;3.25;;;;;;;;;;5030833;28;20018;-37
2022/07/02 11:32:48;;;;;;;7.72;3.85;;;;;;;;;;5030256;28;20040;-38
2022/07/02 11:35:16;;;;;;;19.27;4.17;;;;;;;;;;5030295;28;20057;-39
2022/07/02 11:37:41;;;;;;;;;;;;;;;;;;5030821;28;20028;-39
2022/07/02 11:40:16;;;;;;;3.90;3.30;;;;;;;;;;5030717;28;19905;-38
2022/07/02 11:42:42;;;;;;;11.05;3.80;;;;;;;;;;5030851;28;20026;-38
2022/07/02 11:45:07;;;;;;;6.63;3.57;;;;;;;;;;5030464;28;20550;-38
2022/07/02 11:47:41;;;;;;;15.95;3.30;;;;;;;;;;5030202;28;20048;-38
2022/07/02 11:50:06;;;;;;;13.50;3.13;;;;;;;;;;5030956;28;20060;-40
2022/07/02 11:52:32;;;;;;;5.53;3.13;;;;;;;;;;5030944;28;20052;-39
2022/07/02 11:54:57;;;;;;;7.93;3.30;;;;;;;;;;5030536;28;20071;-39
2022/07/02 11:57:31;;;;;;;7.05;3.17;;;;;;;;;;5034027;28;20300;-38
2022/07/02 11:59:56;;;;;;;6.70;3.20;;;;;;;;;;5034060;28;20018;-38
2022/07/02 12:02:21;;;;;;;4.63;3.83;;;;;;;;;;5034482;28;20100;-39
2022/07/02 12:04:47;;;;;;;5.30;2.83;;;;;;;;;;5033946;28;20031;-38
2022/07/02 12:07:13;;;;;;;6.22;3.38;;;;;;;;;;5034312;28;20296;-37
2022/07/02 12:09:39;;;;;;;6.10;3.72;;;;;;;;;;5034332;28;20018;-37
2022/07/02 12:12:05;;;;;;;8.80;3.33;;;;;;;;;;5034174;28;20045;-38
2022/07/02 12:14:30;;;;;;;6.93;3.58;;;;;;;;;;5033007;28;20428;-38
2022/07/02 12:16:56;;;;;;;9.13;3.10;;;;;;;;;;5021468;28;20025;-38
2022/07/02 12:19:32;;;;;;;7.20;3.70;;;;;;;;;;5014136;28;20598;-39
2022/07/02 12:21:57;;;;;;;7.38;3.50;;;;;;;;;;5014124;28;20386;-40
2022/07/02 12:24:24;;;;;;;6.13;3.30;;;;;;;;;;5013233;28;20084;-37
2022/07/02 12:26:50;;;;;;;9.40;4.35;;;;;;;;;;5014260;28;20017;-37
2022/07/02 12:32:04;;;;;;;7.32;3.60;;;;;;;;;;5013963;28;20033;-39
2022/07/02 12:34:56;;;;;;;8.02;4.03;;;;;;;;;;5012813;28;20152;-37
2022/07/02 12:37:32;;;;;;;9.35;3.63;;;;;;;;;;5013484;28;20042;-38
2022/07/02 12:40:17;;;;;;;9.25;4.22;;;;;;;;;;5013937;28;20026;-37
2022/07/02 12:42:44;;;;;;;6.15;3.70;;;;;;;;;;5013522;28;20391;-40
2022/07/02 12:45:09;;;;;;;6.13;3.95;;;;;;;;;;5013659;28;20061;-37
2022/07/02 12:47:34;;;;;;;10.55;4.70;;;;;;;;;;5013665;28;20058;-40
2022/07/02 12:50:02;;;;;;;6.77;4.17;;;;;;;;;;5013144;28;20457;-40
2022/07/02 12:52:30;;;;;;;9.60;3.90;;;;;;;;;;5013531;28;20047;-38
2022/07/02 12:54:55;;;;;;;6.93;3.65;;;;;;;;;;5013306;28;20487;-38
2022/07/02 12:57:22;;;;;;;11.88;4.18;;;;;;;;;;5013827;28;20112;-38
2022/07/02 12:59:48;;;;;;;5.00;4.00;;;;;;;;;;5013038;28;20022;-37
2022/07/02 13:02:15;;;;;;;9.10;4.13;;;;;;;;;;5013446;28;20021;-38
2022/07/02 13:04:40;;;;;;;8.73;4.30;;;;;;;;;;5011381;28;20068;-40
2022/07/02 13:07:06;;;;;;;10.93;4.32;;;;;;;;;;5012378;28;20026;-40
2022/07/02 13:09:31;;;;;;;11.10;4.25;;;;;;;;;;5013435;28;20550;-38
2022/07/02 13:11:56;;;;;;;6.27;3.80;;;;;;;;;;5013317;28;20026;-37
2022/07/02 13:14:22;;;;;;;12.87;4.17;;;;;;;;;;5014257;28;20332;-42
2022/07/02 13:16:47;;;;;;;8.73;3.60;;;;;;;;;;5021663;28;20343;-38
2022/07/02 13:19:12;;;;;;;5.53;3.67;;;;;;;;;;5013278;28;20029;-37
2022/07/02 13:21:38;;;;;;;7.03;3.70;;;;;;;;;;5013336;28;20240;-38
2022/07/02 13:24:03;;;;;;;5.80;3.78;;;;;;;;;;5012379;28;20284;-37
2022/07/02 13:26:28;;;;;;;5.75;3.58;;;;;;;;;;5012957;28;20389;-38
2022/07/02 13:28:54;;;;;;;7.47;4.03;;;;;;;;;;5013052;28;20033;-37
2022/07/02 13:31:19;;;;;;;6.18;3.92;;;;;;;;;;5011626;28;20017;-42
2022/07/02 13:33:44;;;;;;;13.13;4.38;;;;;;;;;;5011974;28;20075;-38
2022/07/02 13:36:09;;;;;;;5.87;3.77;;;;;;;;;;5012483;28;20033;-41
2022/07/02 13:38:35;;;;;;;6.57;3.10;;;;;;;;;;5013042;28;20016;-38
2022/07/02 13:41:00;;;;;;;5.97;3.40;;;;;;;;;;5012994;28;20021;-38
2022/07/02 13:43:25;;;;;;;10.40;3.45;;;;;;;;;;5011086;28;20279;-40
2022/07/02 13:45:51;;;;;;;5.85;3.45;;;;;;;;;;5012720;28;20425;-38
2022/07/02 13:48:16;;;;;;;6.40;3.15;;;;;;;;;;5044571;28;20022;-37
2022/07/02 13:50:41;;;;;;;7.23;3.20;;;;;;;;;;5012369;28;20052;-38
2022/07/02 13:53:07;;;;;;;10.88;3.58;;;;;;;;;;5012220;28;20251;-39
2022/07/02 13:55:33;;;;;;;5.65;3.38;;;;;;;;;;5012434;28;20075;-40
2022/07/02 13:57:58;;;;;;;7.97;3.38;;;;;;;;;;5011277;28;20121;-41
2022/07/02 14:00:23;;;;;;;8.00;3.07;;;;;;;;;;5010750;28;20029;-38
2022/07/02 14:02:52;;;;;;;4.53;2.45;;;;;;;;;;5012525;28;20275;-38
2022/07/02 14:05:17;;;;;;;;;;;;;;;;;;5012077;28;20453;-38
2022/07/02 14:07:42;;;;;;;6.37;3.37;;;;;;;;;;5012436;28;19905;-41
2022/07/02 14:10:08;;;;;;;6.13;2.95;;;;;;;;;;5011819;28;20153;-37
2022/07/02 14:12:33;;;;;;;4.47;2.40;;;;;;;;;;5010837;28;20084;-42
2022/07/02 14:14:58;;;;;;;5.10;2.53;;;;;;;;;;5018373;28;20034;-38
2022/07/02 14:17:24;;;;;;;6.37;2.30;;;;;;;;;;5015695;28;20021;-38
2022/07/02 14:19:49;;;;;;;3.88;1.98;;;;;;;;;;5043366;28;20256;-42
2022/07/02 14:22:17;;;;;;;3.55;2.40;;;;;;;;;;5011963;28;20032;-39
2022/07/02 14:24:43;;;;;;;;;;;;;;;;;;5011977;28;20033;-38
2022/07/02 14:27:08;;;;;;;6.87;2.00;;;;;;;;;;5012094;28;20281;-38
2022/07/02 14:29:33;;;;;;;5.82;2.05;;;;;;;;;;5011955;28;20030;-38
2022/07/02 14:31:59;;;;;;;4.72;2.17;;;;;;;;;;5011832;28;20101;-37
2022/07/02 14:34:24;;;;;;;4.13;2.03;;;;;;;;;;5011404;28;20049;-38
2022/07/02 14:36:50;;;;;;;2.75;1.67;;;;;;;;;;5011407;28;20274;-39
2022/07/02 14:39:16;;;;;;;4.15;2.20;;;;;;;;;;5011893;28;20045;-38
2022/07/02 14:41:42;;;;;;;2.60;1.92;;;;;;;;;;5011453;28;20021;-38
2022/07/02 14:44:08;;;;;;;4.05;1.60;;;;;;;;;;5011629;28;20389;-38
2022/07/02 14:46:33;;;;;;;5.45;1.70;;;;;;;;;;5011665;28;20030;-39